Vohburg — V2OW7 — position and weather

sailwx.info

Track history (hours):
 
Tides and Currents Weather Stations Pressure Air Temp Water Temp Dewpoint Dewpoint Depression Visibility Wind Speed Wind Dir Waves Ship Positions

Vohburg

Last reported at 2016-Sep-30 17:29 UTC. Time now 2016-Sep-30 18:43 UTC.
Position N 60°00' E 029°43'.

Length 140 m; draft 6.4 m.

Type: Ship (hazmat cat A). MMSI: 305773000.

Date/timePositionNaut miles runAvg speedWind from/ knotsBaromVisibWave heightAir tempDewpointWater temp
2016-Sep-30 17:29N 60°00' E 029°43'0 0.0
2016-Sep-30 16:29N 60°00' E 029°43'0 0.0
2016-Sep-30 14:33N 60°00' E 029°43'0 0.0
2016-Sep-30 13:33N 60°00' E 029°43'0 0.0
2016-Sep-30 10:33N 60°00' E 029°43'0 0.0
2016-Sep-30 08:33N 60°00' E 029°43'0 0.0
2016-Sep-30 06:30N 60°00' E 029°43'25 8.4
2016-Sep-30 03:33N 60°02' E 028°54'1211.8
2016-Sep-30 02:33N 60°03' E 028°30'3210.8
2016-Sep-29 23:33N 60°05' E 027°25'2311.7
2016-Sep-29 21:33N 59°59' E 026°40'102 4.9
2016-Sep-29 00:33N 59°34' E 023°23'34015.4
2016-Sep-28 02:30N 55°42' E 015°38'1616.8
2016-Sep-28 01:34N 55°34' E 015°14'3316.7
2016-Sep-27 23:34N 55°15' E 014°26'6616.4
2016-Sep-27 19:33N 54°45' E 012°44'73 2.6
2016-Sep-26 15:29N 54°03' E 011°02'2613.7
2016-Sep-26 13:33N 54°26' E 011°23'2613.2
2016-Sep-26 11:33N 54°45' E 010°51'4013.1
2016-Sep-26 08:32N 55°25' E 010°59'9012.8
2016-Sep-26 01:33N 56°54' E 010°49'1413.5
2016-Sep-26 00:32N 57°08' E 010°46'3913.2
2016-Sep-25 21:33N 57°47' E 010°42'16713.9
2016-Sep-25 09:33N 55°54' E 006°58'2914.3
2016-Sep-25 07:34N 55°29' E 006°32'4314.3
2016-Sep-25 04:32N 54°52' E 005°54'5614.2
2016-Sep-25 00:34N 54°03' E 005°06'2914.4
2016-Sep-24 22:34N 53°36' E 004°50'1515.2
2016-Sep-24 21:34N 53°22' E 004°39'3216.0
2016-Sep-24 19:33N 52°53' E 004°15'1515.4
2016-Sep-24 18:33N 52°41' E 004°00'1515.1
2016-Sep-24 17:34N 52°29' E 003°45'1514.9
2016-Sep-24 16:34N 52°15' E 003°34'2914.5
2016-Sep-24 14:34N 51°49' E 003°15'2914.6
2016-Sep-24 12:34N 51°27' E 002°45'18 8.8
2016-Sep-24 10:34N 51°21' E 003°11'0 0.0
2016-Sep-24 09:32N 51°21' E 003°11'0 0.0
2016-Sep-24 03:31N 51°21' E 003°11'0 0.0
2016-Sep-24 02:31N 51°21' E 003°11'0 0.0
2016-Sep-24 01:31N 51°21' E 003°11'0 0.2
2016-Sep-24 00:34N 51°21' E 003°12'6913.7
2016-Sep-23 19:33N 51°28' E 001°22'2612.7
2016-Sep-23 17:32N 51°26' E 000°41'0 0.0
2016-Sep-23 16:32N 51°26' E 000°41'0 0.0
2016-Sep-23 15:32N 51°26' E 000°41'0 0.0
2016-Sep-23 13:32N 51°26' E 000°41'0 0.0
2016-Sep-23 09:32N 51°26' E 000°41'7 2.4
2016-Sep-23 06:33N 51°29' E 000°52'2813.9
2016-Sep-23 04:33N 51°30' E 001°36'1212.1
2016-Sep-23 03:33N 51°40' E 001°45'1312.9
2016-Sep-23 02:33N 51°53' E 001°44'1414.0
2016-Sep-23 01:33N 52°07' E 001°46'2014.0
2016-Sep-23 00:09N 52°26' E 001°53'814.2
2016-Sep-22 23:34N 52°35' E 001°56'4013.2
2016-Sep-22 20:34N 53°04' E 001°11'12315.3
2016-Sep-22 12:33N 54°39' W 001°00'10 1.3
2016-Sep-22 04:33N 54°47' W 000°49'0 0.4
2016-Sep-22 03:34N 54°47' W 000°48'  
Track history (hours):
 
Tides and Currents Weather Stations Pressure Air Temp Water Temp Dewpoint Dewpoint Depression Visibility Wind Speed Wind Dir Waves Ship Positions

Vohburg

Last reported at 2016-Sep-30 17:29 UTC. Time now 2016-Sep-30 18:43 UTC.
Position N 60°00' E 029°43'.

Length 140 m; draft 6.4 m.

Type: Ship (hazmat cat A). MMSI: 305773000.

Date/timePositionNaut miles runAvg speedWind from/ knotsBaromVisibWave heightAir tempDewpointWater temp
2016-Sep-30 17:29N 60°00' E 029°43'0 0.0
2016-Sep-30 16:29N 60°00' E 029°43'0 0.0
2016-Sep-30 14:33N 60°00' E 029°43'0 0.0
2016-Sep-30 13:33N 60°00' E 029°43'0 0.0
2016-Sep-30 10:33N 60°00' E 029°43'0 0.0
2016-Sep-30 08:33N 60°00' E 029°43'0 0.0
2016-Sep-30 06:30N 60°00' E 029°43'25 8.4
2016-Sep-30 03:33N 60°02' E 028°54'1211.8
2016-Sep-30 02:33N 60°03' E 028°30'3210.8
2016-Sep-29 23:33N 60°05' E 027°25'2311.7
2016-Sep-29 21:33N 59°59' E 026°40'102 4.9
2016-Sep-29 00:33N 59°34' E 023°23'34015.4
2016-Sep-28 02:30N 55°42' E 015°38'1616.8
2016-Sep-28 01:34N 55°34' E 015°14'3316.7
2016-Sep-27 23:34N 55°15' E 014°26'6616.4
2016-Sep-27 19:33N 54°45' E 012°44'73 2.6
2016-Sep-26 15:29N 54°03' E 011°02'2613.7
2016-Sep-26 13:33N 54°26' E 011°23'2613.2
2016-Sep-26 11:33N 54°45' E 010°51'4013.1
2016-Sep-26 08:32N 55°25' E 010°59'9012.8
2016-Sep-26 01:33N 56°54' E 010°49'1413.5
2016-Sep-26 00:32N 57°08' E 010°46'3913.2
2016-Sep-25 21:33N 57°47' E 010°42'16713.9
2016-Sep-25 09:33N 55°54' E 006°58'2914.3
2016-Sep-25 07:34N 55°29' E 006°32'4314.3
2016-Sep-25 04:32N 54°52' E 005°54'5614.2
2016-Sep-25 00:34N 54°03' E 005°06'2914.4
2016-Sep-24 22:34N 53°36' E 004°50'1515.2
2016-Sep-24 21:34N 53°22' E 004°39'3216.0
2016-Sep-24 19:33N 52°53' E 004°15'1515.4
2016-Sep-24 18:33N 52°41' E 004°00'1515.1
2016-Sep-24 17:34N 52°29' E 003°45'1514.9
2016-Sep-24 16:34N 52°15' E 003°34'2914.5
2016-Sep-24 14:34N 51°49' E 003°15'2914.6
2016-Sep-24 12:34N 51°27' E 002°45'18 8.8
2016-Sep-24 10:34N 51°21' E 003°11'0 0.0
2016-Sep-24 09:32N 51°21' E 003°11'0 0.0
2016-Sep-24 03:31N 51°21' E 003°11'0 0.0
2016-Sep-24 02:31N 51°21' E 003°11'0 0.0
2016-Sep-24 01:31N 51°21' E 003°11'0 0.2
2016-Sep-24 00:34N 51°21' E 003°12'6913.7
2016-Sep-23 19:33N 51°28' E 001°22'2612.7
2016-Sep-23 17:32N 51°26' E 000°41'0 0.0
2016-Sep-23 16:32N 51°26' E 000°41'0 0.0
2016-Sep-23 15:32N 51°26' E 000°41'0 0.0
2016-Sep-23 13:32N 51°26' E 000°41'0 0.0
2016-Sep-23 09:32N 51°26' E 000°41'7 2.4
2016-Sep-23 06:33N 51°29' E 000°52'2813.9
2016-Sep-23 04:33N 51°30' E 001°36'1212.1
2016-Sep-23 03:33N 51°40' E 001°45'1312.9
2016-Sep-23 02:33N 51°53' E 001°44'1414.0
2016-Sep-23 01:33N 52°07' E 001°46'2014.0
2016-Sep-23 00:09N 52°26' E 001°53'814.2
2016-Sep-22 23:34N 52°35' E 001°56'4013.2
2016-Sep-22 20:34N 53°04' E 001°11'12315.3
2016-Sep-22 12:33N 54°39' W 001°00'10 1.3
2016-Sep-22 04:33N 54°47' W 000°49'0 0.4
2016-Sep-22 03:34N 54°47' W 000°48'  

Dump ship's entire track history